Time;durP1;ratioP1;P1;durP2;ratioP2;P2;SDS_P1;SDS_P2;PMS_P1;PMS_P2;Temp;Humidity;BMP_temperature;BMP_pressure;BME280_temperature;BME280_humidity;BME280_pressure;Samples;Min_cycle;Max_cycle;Signal;HPM_P1;HPM_P2
2020/12/10 00:02:21;;;;;;;34.15;21.13;;;4.10;90.40;;;;;;5058659;28;20083;-70
2020/12/10 00:04:47;;;;;;;35.90;22.25;;;4.10;90.30;;;;;;5061900;28;20391;-74
2020/12/10 00:07:12;;;;;;;33.45;20.98;;;4.00;90.40;;;;;;5059331;28;20436;-69
2020/12/10 00:09:38;;;;;;;33.30;21.30;;;4.00;90.50;;;;;;5052757;28;20550;-73
2020/12/10 00:12:04;;;;;;;33.03;20.77;;;4.00;90.50;;;;;;5056767;28;20373;-69
2020/12/10 00:14:30;;;;;;;31.25;20.02;;;4.00;90.50;;;;;;5062294;28;20048;-70
2020/12/10 00:16:55;;;;;;;31.73;20.73;;;4.00;90.40;;;;;;5058509;28;20437;-70
2020/12/10 00:19:21;;;;;;;30.00;20.00;;;4.00;90.60;;;;;;5062046;28;20387;-69
2020/12/10 00:21:47;;;;;;;32.85;21.08;;;4.00;90.60;;;;;;5059982;28;20036;-69
2020/12/10 00:24:12;;;;;;;29.92;19.30;;;4.00;90.40;;;;;;5062856;28;20489;-70
2020/12/10 00:26:38;;;;;;;32.22;18.85;;;4.00;90.10;;;;;;5052942;28;20041;-69
2020/12/10 00:29:04;;;;;;;28.30;18.65;;;4.10;90.20;;;;;;5062907;28;20082;-69
2020/12/10 00:31:30;;;;;;;29.08;19.77;;;4.00;90.10;;;;;;5064385;28;20032;-69
2020/12/10 00:33:55;;;;;;;29.08;19.05;;;4.10;90.10;;;;;;5062314;28;20041;-69
2020/12/10 00:36:21;;;;;;;30.52;19.65;;;4.00;90.10;;;;;;5061579;28;20090;-69
2020/12/10 00:38:47;;;;;;;28.95;18.30;;;4.00;90.10;;;;;;5065689;28;20021;-69
2020/12/10 00:41:14;;;;;;;28.08;18.60;;;4.00;90.00;;;;;;5062711;28;20123;-69
2020/12/10 00:43:40;;;;;;;29.80;18.88;;;3.90;90.10;;;;;;5070016;28;20071;-69
2020/12/10 00:46:06;;;;;;;28.85;18.30;;;3.90;90.20;;;;;;5061570;28;20052;-69
2020/12/10 00:48:33;;;;;;;24.70;16.83;;;3.90;90.10;;;;;;5069331;28;20044;-69
2020/12/10 00:51:02;;;;;;;29.58;19.10;;;3.80;90.20;;;;;;5064498;28;20096;-71
2020/12/10 00:53:29;;;;;;;24.73;16.95;;;3.80;90.10;;;;;;5060827;28;20382;-72
2020/12/10 00:55:57;;;;;;;29.27;18.45;;;3.90;89.90;;;;;;5069903;28;20036;-71
2020/12/10 00:58:23;;;;;;;25.35;16.90;;;3.80;89.90;;;;;;5066051;28;20033;-72
2020/12/10 01:00:52;;;;;;;26.73;16.77;;;3.90;89.90;;;;;;5064987;28;20161;-69
2020/12/10 01:03:18;;;;;;;28.77;17.40;;;3.90;90.00;;;;;;5061620;28;20046;-70
2020/12/10 01:05:45;;;;;;;26.33;17.20;;;3.90;89.90;;;;;;5065474;28;20729;-69
2020/12/10 01:08:11;;;;;;;26.05;17.20;;;3.90;90.00;;;;;;5066639;28;20120;-69
2020/12/10 01:10:36;;;;;;;29.17;17.45;;;3.90;90.00;;;;;;5068954;28;20040;-72
2020/12/10 01:13:03;;;;;;;25.73;17.00;;;3.90;89.90;;;;;;5063853;28;20041;-69
2020/12/10 01:15:28;;;;;;;26.83;16.15;;;3.90;90.00;;;;;;5067088;28;20115;-69
2020/12/10 01:17:54;;;;;;;26.10;15.80;;;3.90;90.00;;;;;;5067318;28;20107;-69
2020/12/10 01:20:20;;;;;;;26.80;17.55;;;3.90;89.90;;;;;;5063466;28;20466;-68
2020/12/10 01:22:45;;;;;;;25.85;15.77;;;3.90;89.90;;;;;;5059690;28;20454;-69
2020/12/10 01:25:11;;;;;;;25.40;16.67;;;3.90;90.00;;;;;;5067290;28;20033;-69
2020/12/10 01:27:37;;;;;;;24.88;15.95;;;3.90;90.10;;;;;;5068237;28;20102;-70
2020/12/10 01:30:07;;;;;;;26.60;17.13;;;3.90;90.10;;;;;;5061728;28;20498;-69
2020/12/10 01:32:33;;;;;;;31.58;16.58;;;3.90;90.20;;;;;;5062147;28;20044;-69
2020/12/10 01:34:58;;;;;;;25.88;16.65;;;3.90;90.10;;;;;;5061481;28;20235;-69
2020/12/10 01:37:24;;;;;;;25.08;16.00;;;3.90;90.20;;;;;;5056235;28;20029;-71
2020/12/10 01:39:50;;;;;;;25.70;15.95;;;3.90;90.10;;;;;;5055947;28;20369;-69
2020/12/10 01:42:16;;;;;;;25.27;15.43;;;3.90;90.00;;;;;;5056301;28;20120;-69
2020/12/10 01:44:42;;;;;;;25.42;16.13;;;3.90;89.90;;;;;;5064732;28;20037;-70
2020/12/10 01:47:08;;;;;;;25.73;15.70;;;3.90;90.00;;;;;;5057797;28;20465;-69
2020/12/10 01:49:36;;;;;;;26.40;16.38;;;3.90;90.20;;;;;;5058184;28;20035;-71
2020/12/10 01:52:04;;;;;;;26.05;14.85;;;3.90;90.10;;;;;;5057084;28;20048;-69
2020/12/10 01:54:30;;;;;;;25.30;16.33;;;3.90;90.00;;;;;;5060903;28;20037;-68
2020/12/10 01:56:56;;;;;;;24.27;15.20;;;3.90;90.00;;;;;;5067327;28;20475;-69
2020/12/10 01:59:22;;;;;;;25.20;15.88;;;3.90;90.00;;;;;;5066037;28;20036;-69
2020/12/10 02:01:49;;;;;;;27.90;16.27;;;3.90;90.00;;;;;;5062563;28;20417;-69
2020/12/10 02:04:33;;;;;;;23.70;15.00;;;3.80;89.90;;;;;;5052579;28;20057;-71
2020/12/10 02:07:03;;;;;;;26.13;15.52;;;3.90;89.90;;;;;;5062272;28;20031;-68
2020/12/10 02:09:29;;;;;;;27.63;16.48;;;3.90;90.00;;;;;;5062237;28;20037;-69
2020/12/10 02:11:55;;;;;;;27.13;15.27;;;3.80;90.00;;;;;;5060648;28;20075;-69
2020/12/10 02:14:22;;;;;;;23.40;13.82;;;3.80;90.00;;;;;;5055407;28;20432;-69
2020/12/10 02:16:55;;;;;;;25.25;15.65;;;3.90;90.00;;;;;;5062959;28;20036;-69
2020/12/10 02:19:21;;;;;;;28.10;16.25;;;3.80;90.00;;;;;;5067296;28;20471;-70
2020/12/10 02:21:47;;;;;;;21.90;14.40;;;3.90;90.00;;;;;;5059657;28;20056;-72
2020/12/10 02:24:18;;;;;;;22.58;13.85;;;3.90;90.10;;;;;;5067066;28;20067;-69
2020/12/10 02:26:44;;;;;;;24.98;15.75;;;3.90;90.10;;;;;;5058497;28;20116;-69
2020/12/10 02:29:10;;;;;;;23.40;14.52;;;3.80;90.20;;;;;;5057872;28;20519;-70
2020/12/10 02:31:36;;;;;;;23.73;15.40;;;3.90;90.00;;;;;;5055776;28;20436;-69
2020/12/10 02:34:05;;;;;;;27.08;14.30;;;3.80;90.00;;;;;;5057348;28;20033;-71
2020/12/10 02:36:31;;;;;;;22.83;14.10;;;3.80;90.00;;;;;;5063302;28;20071;-69
2020/12/10 02:38:57;;;;;;;24.98;15.07;;;3.80;89.90;;;;;;5063786;28;20066;-69
2020/12/10 02:41:23;;;;;;;27.55;15.50;;;3.90;89.90;;;;;;5060679;28;20028;-69
2020/12/10 02:43:49;;;;;;;22.63;13.82;;;3.90;89.90;;;;;;5056706;28;20404;-69
2020/12/10 02:46:14;;;;;;;24.60;15.05;;;3.90;90.00;;;;;;5054499;28;20040;-69
2020/12/10 02:48:40;;;;;;;24.02;14.50;;;3.90;90.10;;;;;;5061678;28;20518;-69
2020/12/10 02:51:07;;;;;;;23.20;13.73;;;3.90;89.90;;;;;;5066671;28;20356;-69
2020/12/10 02:53:36;;;;;;;23.92;14.40;;;4.00;89.70;;;;;;5056086;28;20059;-69
2020/12/10 02:56:10;;;;;;;26.30;14.98;;;3.90;89.50;;;;;;5058274;28;20051;-71
2020/12/10 02:58:37;;;;;;;26.17;14.35;;;3.90;89.70;;;;;;5054157;28;20368;-68
2020/12/10 03:01:06;;;;;;;24.92;13.70;;;3.90;89.70;;;;;;5054998;28;20453;-69
2020/12/10 03:03:32;;;;;;;23.42;13.68;;;3.90;89.60;;;;;;5064191;28;20039;-71
2020/12/10 03:05:57;;;;;;;26.25;14.35;;;3.80;89.70;;;;;;5060712;28;20033;-69
2020/12/10 03:08:23;;;;;;;25.17;14.60;;;3.90;89.70;;;;;;5059365;28;20059;-69
2020/12/10 03:10:50;;;;;;;21.63;13.32;;;3.90;89.40;;;;;;5054095;28;20106;-69
2020/12/10 03:13:16;;;;;;;23.38;13.38;;;3.90;89.40;;;;;;5050054;28;20495;-73
2020/12/10 03:15:42;;;;;;;27.40;14.90;;;3.90;89.50;;;;;;5065330;28;20028;-70
2020/12/10 03:18:09;;;;;;;23.60;13.90;;;3.90;89.60;;;;;;5063284;28;20028;-75
2020/12/10 03:20:35;;;;;;;23.13;14.68;;;3.90;89.60;;;;;;5062515;28;20515;-69
2020/12/10 03:23:01;;;;;;;23.73;13.05;;;3.90;89.30;;;;;;5063640;28;20029;-69
2020/12/10 03:25:26;;;;;;;21.50;13.45;;;3.90;89.30;;;;;;5057941;28;20029;-69
2020/12/10 03:27:52;;;;;;;23.98;13.73;;;3.90;89.30;;;;;;5054970;28;20129;-69
2020/12/10 03:30:18;;;;;;;25.20;14.27;;;3.90;89.30;;;;;;5051918;28;20029;-69
2020/12/10 03:32:43;;;;;;;23.20;14.23;;;3.90;89.50;;;;;;5060878;28;20124;-69
2020/12/10 03:35:09;;;;;;;27.80;14.32;;;3.80;89.50;;;;;;5059283;28;20039;-73
2020/12/10 03:37:35;;;;;;;22.58;13.48;;;3.90;89.70;;;;;;5067027;28;20517;-69
2020/12/10 03:40:01;;;;;;;23.95;13.80;;;3.90;89.50;;;;;;5059194;28;20020;-71
2020/12/10 03:42:27;;;;;;;25.15;14.40;;;3.80;89.50;;;;;;5074016;28;20070;-68
2020/12/10 03:44:52;;;;;;;26.33;14.02;;;3.90;89.40;;;;;;5057869;28;20031;-69
2020/12/10 03:47:18;;;;;;;24.60;13.40;;;3.90;89.30;;;;;;5058806;28;20513;-69
2020/12/10 03:49:43;;;;;;;23.10;13.77;;;3.90;89.40;;;;;;5056514;28;20400;-69
2020/12/10 03:52:09;;;;;;;21.98;12.80;;;3.90;89.50;;;;;;5059007;28;20448;-70
2020/12/10 03:54:35;;;;;;;24.85;15.23;;;3.90;89.40;;;;;;5057435;28;20467;-69
2020/12/10 03:57:01;;;;;;;25.10;14.05;;;3.90;89.50;;;;;;5060302;28;20457;-72
2020/12/10 03:59:28;;;;;;;25.90;14.15;;;3.90;89.50;;;;;;5052314;28;20033;-69
2020/12/10 04:01:55;;;;;;;26.33;15.85;;;4.00;89.40;;;;;;5062704;28;20051;-70
2020/12/10 04:04:21;;;;;;;25.08;14.05;;;4.00;89.40;;;;;;5059567;28;20033;-70
2020/12/10 04:06:47;;;;;;;27.17;15.30;;;4.00;89.30;;;;;;5057537;28;20589;-74
2020/12/10 04:09:13;;;;;;;26.75;16.17;;;4.00;89.30;;;;;;5054947;28;20037;-69
2020/12/10 04:11:39;;;;;;;30.67;16.90;;;4.00;89.50;;;;;;5059437;28;20025;-69
2020/12/10 04:14:05;;;;;;;31.85;16.52;;;4.00;89.50;;;;;;5057745;28;20087;-69
2020/12/10 04:16:31;;;;;;;27.85;15.32;;;4.00;89.50;;;;;;5056465;28;20045;-69
2020/12/10 04:18:57;;;;;;;27.00;16.48;;;4.00;89.50;;;;;;5060991;28;20021;-69
2020/12/10 04:21:22;;;;;;;27.42;15.43;;;4.00;89.60;;;;;;5060293;28;20036;-72
2020/12/10 04:23:48;;;;;;;30.48;17.70;;;4.00;89.60;;;;;;5060610;28;20086;-69
2020/12/10 04:26:15;;;;;;;31.48;16.58;;;4.00;89.70;;;;;;5055691;28;20105;-69
2020/12/10 04:28:42;;;;;;;31.42;17.85;;;4.00;89.70;;;;;;5053395;28;20467;-69
2020/12/10 04:31:07;;;;;;;27.13;16.58;;;4.00;89.60;;;;;;5065619;28;20044;-69
2020/12/10 04:33:33;;;;;;;31.80;17.90;;;4.00;89.70;;;;;;5065608;28;20033;-71
2020/12/10 04:35:59;;;;;;;30.52;17.02;;;4.00;89.70;;;;;;5064442;28;20029;-69
2020/12/10 04:38:25;;;;;;;31.50;17.00;;;4.00;89.80;;;;;;5063612;28;20032;-70
2020/12/10 04:40:51;;;;;;;34.78;18.13;;;4.00;89.70;;;;;;5063050;28;20487;-71
2020/12/10 04:43:26;;;;;;;29.27;16.58;;;4.10;89.60;;;;;;5056071;28;20027;-69
2020/12/10 04:45:56;;;;;;;32.72;18.67;;;4.00;89.70;;;;;;5060976;28;20028;-71
2020/12/10 04:48:24;;;;;;;29.00;16.60;;;4.00;89.50;;;;;;5062828;28;20036;-69
2020/12/10 04:50:50;;;;;;;33.53;17.88;;;4.10;89.50;;;;;;5060218;28;20037;-69
2020/12/10 04:53:17;;;;;;;27.85;16.00;;;4.10;89.50;;;;;;5060516;28;20570;-69
2020/12/10 04:55:43;;;;;;;37.33;18.42;;;4.10;89.20;;;;;;5061675;28;20059;-70
2020/12/10 04:58:09;;;;;;;31.10;17.20;;;4.10;89.20;;;;;;5059699;28;20569;-69
2020/12/10 05:00:36;;;;;;;29.98;17.40;;;4.10;89.10;;;;;;5053243;28;20033;-73
2020/12/10 05:03:02;;;;;;;31.15;16.77;;;4.10;89.20;;;;;;5059497;28;20536;-69
2020/12/10 05:05:32;;;;;;;30.60;17.23;;;4.10;89.20;;;;;;5062649;28;20132;-69
2020/12/10 05:08:07;;;;;;;29.27;16.55;;;4.10;89.20;;;;;;5060949;28;20029;-69
2020/12/10 05:10:44;;;;;;;28.90;17.58;;;4.10;89.20;;;;;;5060672;28;20055;-69
2020/12/10 05:13:13;;;;;;;28.38;16.42;;;4.20;89.10;;;;;;5060227;28;20037;-69
2020/12/10 05:15:40;;;;;;;31.92;18.00;;;4.20;88.90;;;;;;5065374;28;20035;-69
2020/12/10 05:18:11;;;;;;;27.92;17.73;;;4.20;88.90;;;;;;5064890;28;20440;-71
2020/12/10 05:20:45;;;;;;;31.35;18.05;;;4.20;88.60;;;;;;5067433;28;20043;-70
2020/12/10 05:23:16;;;;;;;29.27;16.30;;;4.20;88.70;;;;;;5062630;28;20102;-69
2020/12/10 05:25:53;;;;;;;31.00;17.98;;;4.30;88.90;;;;;;5061969;28;20035;-73
2020/12/10 05:28:20;;;;;;;28.52;17.40;;;4.20;88.80;;;;;;5062125;28;20609;-72
2020/12/10 05:31:01;;;;;;;37.15;18.50;;;4.20;88.70;;;;;;5067752;28;20037;-69
2020/12/10 05:33:27;;;;;;;28.88;18.20;;;4.30;88.60;;;;;;5049894;28;20044;-69
2020/12/10 05:36:06;;;;;;;32.40;18.42;;;4.30;88.60;;;;;;5063791;28;20376;-69
2020/12/10 05:38:32;;;;;;;28.60;17.65;;;4.30;88.60;;;;;;5062184;28;20040;-70
2020/12/10 05:41:20;;;;;;;33.65;18.00;;;4.30;88.50;;;;;;5062117;28;20025;-70
2020/12/10 05:43:45;;;;;;;28.60;17.42;;;4.30;88.60;;;;;;5066711;28;20028;-70
2020/12/10 05:46:23;;;;;;;31.90;17.85;;;4.30;88.60;;;;;;5061930;28;20033;-69
2020/12/10 05:48:49;;;;;;;31.42;18.92;;;4.20;88.50;;;;;;5063002;28;20548;-69
2020/12/10 05:51:18;;;;;;;30.52;18.42;;;4.20;88.70;;;;;;5059632;28;20082;-70
2020/12/10 05:53:44;;;;;;;30.25;17.83;;;4.20;88.70;;;;;;5060351;28;20124;-69
2020/12/10 05:56:12;;;;;;;31.13;18.50;;;4.20;88.70;;;;;;5062047;28;20078;-70
2020/12/10 05:58:52;;;;;;;28.30;18.25;;;4.20;88.60;;;;;;5061044;28;20033;-69
2020/12/10 06:01:50;;;;;;;28.95;17.48;;;4.30;88.60;;;;;;5060456;28;20041;-73
2020/12/10 06:04:16;;;;;;;27.25;17.08;;;4.30;88.60;;;;;;5050234;28;20033;-69
2020/12/10 06:06:42;;;;;;;26.38;17.33;;;4.20;88.50;;;;;;5060206;28;20475;-70
2020/12/10 06:09:09;;;;;;;28.73;17.45;;;4.20;88.50;;;;;;5063123;28;20484;-70
2020/12/10 06:11:37;;;;;;;29.88;19.40;;;4.30;88.60;;;;;;5066707;28;20032;-70
2020/12/10 06:14:05;;;;;;;29.25;18.98;;;4.20;88.60;;;;;;5061642;28;20041;-70
2020/12/10 06:16:32;;;;;;;30.30;19.50;;;4.20;88.70;;;;;;5057379;28;20071;-70
2020/12/10 06:19:03;;;;;;;28.33;17.60;;;4.20;88.60;;;;;;5057011;28;20361;-71
2020/12/10 06:21:46;;;;;;;26.73;17.13;;;4.30;88.60;;;;;;5058313;28;20025;-71
2020/12/10 06:24:25;;;;;;;28.27;17.05;;;4.30;88.40;;;;;;5055967;28;20395;-70
2020/12/10 06:26:57;;;;;;;31.92;17.35;;;4.30;88.30;;;;;;5062244;28;20037;-70
2020/12/10 06:29:24;;;;;;;36.38;20.55;;;4.30;88.30;;;;;;5058095;28;20045;-70
2020/12/10 06:32:10;;;;;;;26.33;17.38;;;4.30;88.40;;;;;;5061796;28;20400;-71
2020/12/10 06:34:43;;;;;;;30.30;18.48;;;4.30;88.40;;;;;;5066909;28;20497;-70
2020/12/10 06:37:22;;;;;;;35.78;20.77;;;4.30;88.30;;;;;;5068600;28;20048;-70
2020/12/10 06:39:57;;;;;;;28.40;17.42;;;4.30;88.40;;;;;;5052231;28;20033;-70
2020/12/10 06:42:24;;;;;;;31.25;20.30;;;4.30;88.50;;;;;;5063937;28;20086;-71
2020/12/10 06:44:50;;;;;;;34.47;20.02;;;4.40;88.40;;;;;;5078985;28;20112;-71
2020/12/10 06:47:37;;;;;;;31.80;20.23;;;4.40;88.50;;;;;;5060830;28;20419;-71
2020/12/10 06:50:26;;;;;;;33.03;21.23;;;4.40;88.40;;;;;;5062401;28;20094;-70
2020/12/10 06:53:17;;;;;;;32.45;19.88;;;4.40;88.40;;;;;;5069174;28;20032;-71
2020/12/10 06:55:58;;;;;;;31.15;18.20;;;4.40;88.40;;;;;;5066904;28;20045;-70
2020/12/10 06:58:40;;;;;;;34.20;20.50;;;4.40;88.50;;;;;;5058929;28;20044;-72
2020/12/10 07:01:37;;;;;;;31.83;19.30;;;4.50;88.40;;;;;;5063871;28;20072;-73
2020/12/10 07:04:19;;;;;;;34.88;21.70;;;4.50;88.40;;;;;;5057665;28;20032;-69
2020/12/10 07:06:46;;;;;;;42.38;25.05;;;4.40;88.40;;;;;;5062146;28;20060;-73
2020/12/10 07:09:14;;;;;;;40.47;24.08;;;4.40;88.40;;;;;;5050879;28;20147;-75
2020/12/10 07:11:45;;;;;;;32.25;20.05;;;4.40;88.50;;;;;;5067765;28;20479;-69
2020/12/10 07:14:27;;;;;;;43.10;24.30;;;4.50;88.50;;;;;;5064397;28;20052;-71
2020/12/10 07:16:55;;;;;;;39.17;24.23;;;4.50;88.40;;;;;;5061033;28;20037;-67
2020/12/10 07:19:21;;;;;;;33.53;21.83;;;4.50;88.70;;;;;;5063761;28;20040;-69
2020/12/10 07:21:47;;;;;;;31.67;20.55;;;4.50;88.60;;;;;;5059985;28;20047;-71
2020/12/10 07:24:12;;;;;;;30.15;19.45;;;4.50;88.40;;;;;;5077607;28;20103;-69
2020/12/10 07:26:39;;;;;;;33.10;19.42;;;4.50;88.30;;;;;;5067985;28;20131;-69
2020/12/10 07:29:05;;;;;;;32.63;19.35;;;4.50;88.20;;;;;;5061313;28;20048;-69
2020/12/10 07:31:34;;;;;;;29.27;18.55;;;4.50;88.20;;;;;;5036867;28;20040;-69
2020/12/10 07:34:00;;;;;;;31.92;18.77;;;4.50;88.20;;;;;;5041672;28;20484;-71
2020/12/10 07:36:27;;;;;;;28.70;17.70;;;4.50;88.40;;;;;;5043340;28;20040;-74
2020/12/10 07:38:53;;;;;;;31.40;18.10;;;4.60;88.20;;;;;;5036999;28;20162;-76
2020/12/10 07:41:19;;;;;;;29.42;17.38;;;4.60;88.10;;;;;;5045056;28;20037;-72
2020/12/10 07:43:52;;;;;;;28.02;18.65;;;4.50;88.20;;;;;;5048063;28;20039;-80
2020/12/10 07:46:21;;;;;;;29.40;17.70;;;4.60;88.10;;;;;;5041882;28;20116;-73
2020/12/10 07:48:48;;;;;;;28.85;17.85;;;4.50;88.20;;;;;;5041064;28;20526;-72
2020/12/10 07:51:19;;;;;;;25.77;17.20;;;4.50;88.10;;;;;;5044273;28;20040;-72
2020/12/10 07:53:46;;;;;;;26.52;17.88;;;4.60;88.00;;;;;;5047860;28;20053;-78
2020/12/10 07:56:20;;;;;;;25.17;16.63;;;4.60;88.00;;;;;;5066064;28;20059;-72
2020/12/10 07:59:15;;;;;;;26.45;16.17;;;4.60;88.00;;;;;;5054659;28;20396;-75
2020/12/10 08:01:47;;;;;;;29.30;16.73;;;4.60;87.80;;;;;;5060036;28;20131;-71
2020/12/10 08:04:17;;;;;;;25.77;16.35;;;4.60;87.80;;;;;;5050609;28;20495;-71
2020/12/10 08:06:44;;;;;;;22.05;14.45;;;4.60;87.70;;;;;;5050419;28;20396;-71
2020/12/10 08:09:12;;;;;;;25.42;15.80;;;4.60;87.90;;;;;;5063118;28;20037;-71
2020/12/10 08:11:55;;;;;;;24.52;15.02;;;4.60;87.80;;;;;;5063509;28;20040;-72
2020/12/10 08:14:28;;;;;;;24.38;14.68;;;4.60;87.70;;;;;;5071201;28;20044;-72
2020/12/10 08:16:54;;;;;;;23.52;13.73;;;4.60;87.90;;;;;;5061873;28;20040;-77
2020/12/10 08:19:31;;;;;;;26.90;14.98;;;4.60;87.70;;;;;;5057015;28;20032;-71
2020/12/10 08:21:57;;;;;;;21.85;14.60;;;4.70;87.70;;;;;;5060407;28;20051;-72
2020/12/10 08:24:44;;;;;;;23.85;14.50;;;4.60;87.80;;;;;;5053735;28;20041;-72
2020/12/10 08:27:11;;;;;;;23.50;15.32;;;4.60;87.60;;;;;;5063581;28;20492;-73
2020/12/10 08:29:37;;;;;;;21.25;13.68;;;4.70;87.50;;;;;;5059193;28;20365;-75
2020/12/10 08:32:11;;;;;;;22.30;13.18;;;4.70;87.40;;;;;;5055715;28;20033;-73
2020/12/10 08:34:38;;;;;;;21.33;12.52;;;4.70;87.30;;;;;;5054435;28;20048;-71
2020/12/10 08:37:07;;;;;;;25.70;13.80;;;4.80;87.10;;;;;;5066541;28;20032;-71
2020/12/10 08:39:39;;;;;;;21.70;13.13;;;4.80;86.90;;;;;;5054613;28;20056;-72
2020/12/10 08:42:06;;;;;;;23.60;14.35;;;4.80;87.00;;;;;;5058591;28;20067;-73
2020/12/10 08:44:48;;;;;;;22.15;13.48;;;4.80;87.00;;;;;;5053566;28;20044;-73
2020/12/10 08:47:21;;;;;;;22.67;13.25;;;4.90;86.70;;;;;;5058591;28;20067;-73
2020/12/10 08:50:06;;;;;;;20.95;13.27;;;4.90;86.40;;;;;;5063169;28;20052;-76
2020/12/10 08:52:32;;;;;;;26.38;14.18;;;4.90;86.30;;;;;;5068143;28;20495;-72
2020/12/10 08:54:57;;;;;;;20.90;14.13;;;4.80;86.20;;;;;;5059871;28;20029;-71
2020/12/10 08:57:23;;;;;;;21.25;13.45;;;4.90;86.30;;;;;;5064996;28;20029;-73
2020/12/10 08:59:49;;;;;;;20.33;13.10;;;4.80;86.40;;;;;;5066687;28;20059;-72
2020/12/10 09:02:15;;;;;;;19.40;12.05;;;4.90;86.40;;;;;;5060430;28;20029;-72
2020/12/10 09:04:40;;;;;;;20.52;11.88;;;4.90;85.60;;;;;;5064258;28;20063;-72
2020/12/10 09:07:06;;;;;;;21.02;12.93;;;4.90;85.60;;;;;;5059949;28;20971;-78
2020/12/10 09:09:31;;;;;;;20.80;12.55;;;5.00;85.70;;;;;;5063823;28;20059;-71
2020/12/10 09:11:57;;;;;;;17.88;11.15;;;5.00;85.80;;;;;;5059754;28;20489;-74
2020/12/10 09:14:23;;;;;;;21.83;13.15;;;4.90;85.60;;;;;;5063674;28;20043;-74
2020/12/10 09:16:50;;;;;;;20.27;10.88;;;4.90;85.70;;;;;;5060701;28;20029;-71
2020/12/10 09:19:17;;;;;;;17.92;11.27;;;5.00;85.30;;;;;;5060508;28;20056;-72
2020/12/10 09:21:44;;;;;;;16.35;11.48;;;5.00;84.60;;;;;;5067009;28;20078;-72
2020/12/10 09:24:09;;;;;;;16.95;12.07;;;5.00;84.90;;;;;;5060829;28;20487;-74
2020/12/10 09:26:38;;;;;;;14.85;10.07;;;5.00;84.90;;;;;;5066954;28;20063;-71
2020/12/10 09:29:29;;;;;;;16.30;11.52;;;5.00;84.50;;;;;;5055737;28;20037;-79
2020/12/10 09:32:16;;;;;;;13.75;8.82;;;5.00;84.00;;;;;;5059459;28;20045;-74
2020/12/10 09:34:42;;;;;;;16.35;9.70;;;5.00;83.30;;;;;;5066110;28;20024;-74
2020/12/10 09:37:08;;;;;;;13.43;9.10;;;5.10;83.10;;;;;;5057791;28;20116;-68
2020/12/10 09:39:35;;;;;;;14.13;8.63;;;5.10;82.50;;;;;;5055668;28;20120;-68
2020/12/10 09:42:06;;;;;;;13.60;9.50;;;5.10;82.70;;;;;;5065305;28;20047;-70
2020/12/10 09:44:32;;;;;;;15.50;9.05;;;5.20;82.70;;;;;;5063345;28;20433;-70
2020/12/10 09:46:58;;;;;;;14.77;8.70;;;5.20;82.00;;;;;;5065445;28;20025;-69
2020/12/10 09:49:24;;;;;;;13.25;8.55;;;5.20;82.00;;;;;;5057584;28;20043;-70
2020/12/10 09:51:56;;;;;;;14.60;8.60;;;5.20;82.10;;;;;;5063890;28;20033;-70
2020/12/10 09:59:23;;;;;;;14.93;9.13;;;5.30;82.10;;;;;;5058324;28;20040;-71
2020/12/10 10:01:51;;;;;;;13.55;8.80;;;5.30;81.80;;;;;;5059001;28;20074;-68
2020/12/10 10:04:37;;;;;;;14.02;8.65;;;5.30;82.10;;;;;;5062275;28;20033;-70
2020/12/10 10:07:06;;;;;;;13.68;7.70;;;5.40;82.10;;;;;;5053492;28;20049;-68
2020/12/10 10:09:32;;;;;;;14.07;8.63;;;5.40;82.10;;;;;;5066667;28;20140;-69
2020/12/10 10:11:58;;;;;;;11.43;7.53;;;5.50;81.60;;;;;;5060837;28;20021;-71
2020/12/10 10:14:41;;;;;;;13.75;8.32;;;5.50;81.70;;;;;;5063141;28;20039;-68
2020/12/10 10:17:08;;;;;;;15.75;8.15;;;5.50;81.60;;;;;;5058784;28;20028;-68
2020/12/10 10:19:35;;;;;;;13.57;8.02;;;5.50;81.30;;;;;;5059689;28;20075;-69
2020/12/10 10:22:03;;;;;;;13.02;8.02;;;5.60;81.10;;;;;;5061861;28;20055;-70
2020/12/10 10:24:30;;;;;;;15.10;8.52;;;5.60;81.20;;;;;;5055406;28;20040;-69
2020/12/10 10:26:57;;;;;;;13.57;7.65;;;5.60;80.70;;;;;;5061372;28;20025;-69
2020/12/10 10:29:23;;;;;;;15.80;7.97;;;5.60;81.10;;;;;;5061027;28;20025;-68
2020/12/10 10:31:49;;;;;;;16.08;8.43;;;5.50;81.10;;;;;;5059888;28;20033;-70
2020/12/10 10:34:16;;;;;;;14.27;8.63;;;5.60;81.20;;;;;;5054458;28;20048;-75
2020/12/10 10:36:42;;;;;;;14.00;8.45;;;5.70;81.30;;;;;;5060599;28;20033;-68
2020/12/10 10:39:08;;;;;;;14.07;8.25;;;5.80;80.90;;;;;;5064202;28;20597;-69
2020/12/10 10:41:56;;;;;;;14.38;8.02;;;5.80;80.80;;;;;;5056571;28;20037;-69
2020/12/10 10:44:23;;;;;;;14.45;7.57;;;5.80;80.60;;;;;;5063955;28;20029;-70
2020/12/10 10:46:49;;;;;;;16.48;8.77;;;5.70;80.20;;;;;;5062048;28;20091;-69
2020/12/10 10:49:17;;;;;;;12.93;8.32;;;5.70;80.50;;;;;;5061430;28;20507;-69
2020/12/10 10:51:43;;;;;;;15.88;7.80;;;5.80;80.30;;;;;;5056802;28;20518;-70
2020/12/10 10:54:13;;;;;;;15.57;7.93;;;5.80;80.30;;;;;;5058678;28;20044;-73
2020/12/10 10:57:08;;;;;;;15.93;8.68;;;5.70;80.30;;;;;;5061353;28;20111;-70
2020/12/10 10:59:34;;;;;;;14.57;8.35;;;5.70;80.30;;;;;;5053636;28;20129;-70
2020/12/10 11:02:03;;;;;;;14.90;8.73;;;5.70;80.40;;;;;;5053910;28;20479;-76
2020/12/10 11:04:29;;;;;;;16.15;9.40;;;5.70;80.80;;;;;;5065586;28;20115;-70
2020/12/10 11:06:54;;;;;;;16.65;8.88;;;5.70;80.70;;;;;;5065956;28;20112;-68
2020/12/10 11:09:20;;;;;;;14.35;8.25;;;5.80;80.60;;;;;;5061408;28;20029;-69
2020/12/10 11:11:46;;;;;;;16.45;9.38;;;5.80;80.40;;;;;;5064968;28;20024;-70
2020/12/10 11:14:12;;;;;;;15.30;8.70;;;5.80;80.50;;;;;;5060891;28;20519;-70
2020/12/10 11:16:39;;;;;;;12.82;7.60;;;5.90;79.90;;;;;;5059839;28;20056;-71
2020/12/10 11:19:10;;;;;;;14.80;8.23;;;5.90;80.00;;;;;;5063802;28;20064;-71
2020/12/10 11:21:56;;;;;;;13.90;8.50;;;6.00;80.10;;;;;;5064662;28;20031;-71
2020/12/10 11:24:42;;;;;;;13.57;8.32;;;6.10;79.90;;;;;;5058766;28;20367;-70
2020/12/10 11:27:08;;;;;;;15.00;8.98;;;6.10;79.60;;;;;;5060083;28;20491;-71
2020/12/10 11:29:54;;;;;;;13.27;8.75;;;6.10;79.60;;;;;;5061219;28;20056;-70
2020/12/10 11:32:40;;;;;;;14.07;8.57;;;6.10;79.40;;;;;;5056474;28;20040;-71
2020/12/10 11:35:06;;;;;;;14.80;7.55;;;6.30;79.70;;;;;;5061477;28;20031;-71
2020/12/10 11:37:31;;;;;;;15.55;8.70;;;6.40;78.90;;;;;;5054935;28;20032;-71
2020/12/10 11:39:58;;;;;;;15.32;8.65;;;6.50;78.40;;;;;;5060337;28;20029;-70
2020/12/10 11:42:27;;;;;;;14.68;8.38;;;6.60;78.40;;;;;;5062319;28;20031;-74
2020/12/10 11:44:53;;;;;;;13.95;8.13;;;6.50;78.40;;;;;;5062441;28;20078;-76
2020/12/10 11:47:18;;;;;;;13.68;8.35;;;6.60;78.30;;;;;;5063022;28;20032;-70
2020/12/10 11:49:44;;;;;;;14.23;9.05;;;6.60;77.80;;;;;;5061258;28;20422;-70
2020/12/10 11:52:10;;;;;;;14.15;8.60;;;6.60;78.30;;;;;;5057547;28;20387;-70
2020/12/10 11:54:35;;;;;;;14.00;9.00;;;6.60;78.40;;;;;;5065491;28;20070;-70
2020/12/10 11:57:01;;;;;;;16.40;9.45;;;6.50;78.30;;;;;;5060789;28;20037;-70
2020/12/10 11:59:47;;;;;;;17.83;8.27;;;6.40;78.90;;;;;;5062251;28;20155;-70
2020/12/10 12:02:12;;;;;;;13.48;8.77;;;6.30;78.50;;;;;;5063550;28;20448;-70
2020/12/10 12:04:38;;;;;;;15.82;9.10;;;6.20;79.10;;;;;;5057907;28;20447;-70
2020/12/10 12:07:04;;;;;;;14.60;9.05;;;6.10;79.20;;;;;;5059355;28;20033;-70
2020/12/10 12:09:35;;;;;;;16.10;9.13;;;6.10;79.40;;;;;;5060101;28;20082;-70
2020/12/10 12:12:21;;;;;;;15.55;9.98;;;6.10;80.00;;;;;;5054901;28;20036;-73
2020/12/10 12:14:46;;;;;;;16.02;10.63;;;6.20;79.70;;;;;;5062081;28;20086;-70
2020/12/10 12:17:12;;;;;;;17.08;10.50;;;6.30;79.70;;;;;;5055294;28;21216;-70
2020/12/10 12:19:39;;;;;;;16.40;9.70;;;6.40;79.30;;;;;;5058826;28;20029;-70
2020/12/10 12:22:24;;;;;;;15.35;9.55;;;6.40;78.60;;;;;;5058885;28;20109;-71
2020/12/10 12:24:53;;;;;;;14.45;9.27;;;6.50;78.80;;;;;;5060683;28;20041;-69
2020/12/10 12:27:21;;;;;;;12.90;9.25;;;6.60;78.70;;;;;;5057977;28;20033;-71
2020/12/10 12:29:46;;;;;;;14.98;9.02;;;6.70;78.00;;;;;;5062392;28;20037;-71
2020/12/10 12:32:12;;;;;;;14.07;9.63;;;6.70;78.10;;;;;;5064085;28;20033;-70
2020/12/10 12:34:58;;;;;;;15.15;9.77;;;6.80;77.90;;;;;;5066957;28;20048;-71
2020/12/10 12:37:23;;;;;;;15.02;9.18;;;6.80;77.20;;;;;;5064409;28;20040;-70
2020/12/10 12:39:49;;;;;;;15.93;9.63;;;6.90;77.30;;;;;;5068788;28;20090;-70
2020/12/10 12:42:15;;;;;;;13.32;9.40;;;6.90;76.90;;;;;;5069534;28;20457;-72
2020/12/10 12:44:42;;;;;;;14.95;9.80;;;6.80;77.20;;;;;;5068736;28;20068;-70
2020/12/10 12:47:27;;;;;;;18.92;10.10;;;6.70;77.00;;;;;;5066468;28;20063;-70
2020/12/10 12:49:53;;;;;;;17.40;9.32;;;6.80;77.00;;;;;;5059549;28;20101;-71
2020/12/10 12:52:19;;;;;;;16.95;9.30;;;6.80;76.90;;;;;;5063938;28;20048;-71
2020/12/10 12:54:45;;;;;;;17.08;9.18;;;6.80;76.90;;;;;;5065952;28;20040;-71